sensor_id;sensor_type;location;lat;lon;timestamp;P1;durP1;ratioP1;P2;durP2;ratioP2
9904;SDS011;4991;43.566;27.820;2022-10-22T00:01:02;3.90;;;2.40;;
9904;SDS011;4991;43.566;27.820;2022-10-22T00:03:27;6.47;;;3.00;;
9904;SDS011;4991;43.566;27.820;2022-10-22T00:05:53;4.37;;;2.60;;
9904;SDS011;4991;43.566;27.820;2022-10-22T00:08:19;4.53;;;2.87;;
9904;SDS011;4991;43.566;27.820;2022-10-22T00:10:44;3.90;;;2.60;;
9904;SDS011;4991;43.566;27.820;2022-10-22T00:13:10;4.93;;;2.83;;
9904;SDS011;4991;43.566;27.820;2022-10-22T00:15:36;3.20;;;2.80;;
9904;SDS011;4991;43.566;27.820;2022-10-22T00:18:02;5.27;;;3.20;;
9904;SDS011;4991;43.566;27.820;2022-10-22T00:20:28;5.50;;;3.40;;
9904;SDS011;4991;43.566;27.820;2022-10-22T00:22:54;5.33;;;3.23;;
9904;SDS011;4991;43.566;27.820;2022-10-22T00:25:19;4.83;;;3.00;;
9904;SDS011;4991;43.566;27.820;2022-10-22T00:27:45;5.03;;;3.20;;
9904;SDS011;4991;43.566;27.820;2022-10-22T00:30:11;6.03;;;3.30;;
9904;SDS011;4991;43.566;27.820;2022-10-22T00:32:36;6.97;;;3.37;;
9904;SDS011;4991;43.566;27.820;2022-10-22T00:35:02;4.90;;;3.60;;
9904;SDS011;4991;43.566;27.820;2022-10-22T00:37:28;5.50;;;2.93;;
9904;SDS011;4991;43.566;27.820;2022-10-22T00:39:54;4.30;;;2.90;;
9904;SDS011;4991;43.566;27.820;2022-10-22T00:42:21;6.57;;;2.73;;
9904;SDS011;4991;43.566;27.820;2022-10-22T00:50:16;3.90;;;3.00;;
9904;SDS011;4991;43.566;27.820;2022-10-22T00:53:11;7.97;;;2.73;;
9904;SDS011;4991;43.566;27.820;2022-10-22T00:55:39;3.67;;;2.50;;
9904;SDS011;4991;43.566;27.820;2022-10-22T00:58:06;4.87;;;3.00;;
9904;SDS011;4991;43.566;27.820;2022-10-22T01:00:32;7.10;;;2.90;;
9904;SDS011;4991;43.566;27.820;2022-10-22T01:02:57;3.37;;;2.87;;
9904;SDS011;4991;43.566;27.820;2022-10-22T01:05:25;5.50;;;3.60;;
9904;SDS011;4991;43.566;27.820;2022-10-22T01:07:53;3.23;;;2.73;;
9904;SDS011;4991;43.566;27.820;2022-10-22T01:10:53;4.70;;;2.93;;
9904;SDS011;4991;43.566;27.820;2022-10-22T01:13:29;6.83;;;3.20;;
9904;SDS011;4991;43.566;27.820;2022-10-22T01:18:57;3.73;;;3.23;;
9904;SDS011;4991;43.566;27.820;2022-10-22T01:21:35;4.03;;;2.77;;
9904;SDS011;4991;43.566;27.820;2022-10-22T01:32:12;4.63;;;3.67;;
9904;SDS011;4991;43.566;27.820;2022-10-22T01:34:41;3.60;;;3.13;;
9904;SDS011;4991;43.566;27.820;2022-10-22T01:37:11;6.27;;;3.47;;
9904;SDS011;4991;43.566;27.820;2022-10-22T01:39:39;5.13;;;2.80;;
9904;SDS011;4991;43.566;27.820;2022-10-22T01:42:06;4.50;;;3.80;;
9904;SDS011;4991;43.566;27.820;2022-10-22T01:44:33;4.83;;;2.87;;
9904;SDS011;4991;43.566;27.820;2022-10-22T01:47:02;5.60;;;3.73;;
9904;SDS011;4991;43.566;27.820;2022-10-22T01:55:21;4.57;;;3.30;;
9904;SDS011;4991;43.566;27.820;2022-10-22T02:04:00;5.20;;;3.50;;
9904;SDS011;4991;43.566;27.820;2022-10-22T02:06:39;4.83;;;3.13;;
9904;SDS011;4991;43.566;27.820;2022-10-22T02:09:07;5.17;;;3.50;;
9904;SDS011;4991;43.566;27.820;2022-10-22T02:11:34;8.50;;;4.57;;
9904;SDS011;4991;43.566;27.820;2022-10-22T02:14:01;5.40;;;4.30;;
9904;SDS011;4991;43.566;27.820;2022-10-22T02:16:36;6.43;;;4.23;;
9904;SDS011;4991;43.566;27.820;2022-10-22T02:19:08;5.43;;;3.70;;
9904;SDS011;4991;43.566;27.820;2022-10-22T02:21:58;5.50;;;3.83;;
9904;SDS011;4991;43.566;27.820;2022-10-22T02:24:24;9.20;;;5.17;;
9904;SDS011;4991;43.566;27.820;2022-10-22T02:26:51;7.90;;;4.60;;
9904;SDS011;4991;43.566;27.820;2022-10-22T02:29:26;5.17;;;3.40;;
9904;SDS011;4991;43.566;27.820;2022-10-22T02:31:57;6.23;;;4.13;;
9904;SDS011;4991;43.566;27.820;2022-10-22T02:34:26;7.87;;;4.00;;
9904;SDS011;4991;43.566;27.820;2022-10-22T02:36:56;7.50;;;4.93;;
9904;SDS011;4991;43.566;27.820;2022-10-22T02:39:24;6.60;;;4.17;;
9904;SDS011;4991;43.566;27.820;2022-10-22T02:41:50;6.67;;;4.20;;
9904;SDS011;4991;43.566;27.820;2022-10-22T02:44:18;6.57;;;4.50;;
9904;SDS011;4991;43.566;27.820;2022-10-22T02:46:45;6.60;;;4.63;;
9904;SDS011;4991;43.566;27.820;2022-10-22T02:49:11;7.30;;;4.37;;
9904;SDS011;4991;43.566;27.820;2022-10-22T02:51:36;5.87;;;4.50;;
9904;SDS011;4991;43.566;27.820;2022-10-22T02:54:02;7.53;;;4.50;;
9904;SDS011;4991;43.566;27.820;2022-10-22T02:56:27;5.90;;;4.27;;
9904;SDS011;4991;43.566;27.820;2022-10-22T02:58:53;5.03;;;3.97;;
9904;SDS011;4991;43.566;27.820;2022-10-22T03:01:19;9.43;;;4.60;;
9904;SDS011;4991;43.566;27.820;2022-10-22T03:03:44;7.90;;;4.83;;
9904;SDS011;4991;43.566;27.820;2022-10-22T03:06:09;5.50;;;4.33;;
9904;SDS011;4991;43.566;27.820;2022-10-22T03:08:35;6.80;;;4.10;;
9904;SDS011;4991;43.566;27.820;2022-10-22T03:11:01;6.23;;;4.97;;
9904;SDS011;4991;43.566;27.820;2022-10-22T03:13:27;8.30;;;5.23;;
9904;SDS011;4991;43.566;27.820;2022-10-22T03:15:52;18.90;;;8.43;;
9904;SDS011;4991;43.566;27.820;2022-10-22T03:18:18;7.13;;;5.30;;
9904;SDS011;4991;43.566;27.820;2022-10-22T03:20:44;7.43;;;6.03;;
9904;SDS011;4991;43.566;27.820;2022-10-22T03:23:10;8.03;;;4.93;;
9904;SDS011;4991;43.566;27.820;2022-10-22T03:25:38;8.57;;;5.00;;
9904;SDS011;4991;43.566;27.820;2022-10-22T03:28:08;8.83;;;4.93;;
9904;SDS011;4991;43.566;27.820;2022-10-22T03:30:37;6.83;;;4.63;;
9904;SDS011;4991;43.566;27.820;2022-10-22T03:33:03;5.00;;;4.13;;
9904;SDS011;4991;43.566;27.820;2022-10-22T03:35:29;5.50;;;4.10;;
9904;SDS011;4991;43.566;27.820;2022-10-22T03:37:55;12.30;;;5.00;;
9904;SDS011;4991;43.566;27.820;2022-10-22T03:40:24;4.70;;;3.90;;
9904;SDS011;4991;43.566;27.820;2022-10-22T03:42:51;4.93;;;3.67;;
9904;SDS011;4991;43.566;27.820;2022-10-22T03:45:16;5.13;;;4.07;;
9904;SDS011;4991;43.566;27.820;2022-10-22T03:47:42;4.93;;;4.00;;
9904;SDS011;4991;43.566;27.820;2022-10-22T03:50:08;9.70;;;4.40;;
9904;SDS011;4991;43.566;27.820;2022-10-22T03:52:35;5.47;;;4.63;;
9904;SDS011;4991;43.566;27.820;2022-10-22T03:55:02;6.27;;;3.73;;
9904;SDS011;4991;43.566;27.820;2022-10-22T03:57:28;7.33;;;4.20;;
9904;SDS011;4991;43.566;27.820;2022-10-22T03:59:54;4.67;;;3.33;;
9904;SDS011;4991;43.566;27.820;2022-10-22T04:02:19;4.60;;;3.77;;
9904;SDS011;4991;43.566;27.820;2022-10-22T04:04:45;4.80;;;3.40;;
9904;SDS011;4991;43.566;27.820;2022-10-22T04:07:11;4.20;;;3.00;;
9904;SDS011;4991;43.566;27.820;2022-10-22T04:09:37;8.93;;;3.53;;
9904;SDS011;4991;43.566;27.820;2022-10-22T04:12:02;5.50;;;3.60;;
9904;SDS011;4991;43.566;27.820;2022-10-22T04:14:30;5.13;;;3.40;;
9904;SDS011;4991;43.566;27.820;2022-10-22T04:16:56;6.40;;;4.27;;
9904;SDS011;4991;43.566;27.820;2022-10-22T04:19:22;8.47;;;5.30;;
9904;SDS011;4991;43.566;27.820;2022-10-22T04:21:47;7.80;;;5.33;;
9904;SDS011;4991;43.566;27.820;2022-10-22T04:24:13;6.17;;;3.50;;
9904;SDS011;4991;43.566;27.820;2022-10-22T04:26:39;5.73;;;3.17;;
9904;SDS011;4991;43.566;27.820;2022-10-22T04:29:05;6.20;;;3.63;;
9904;SDS011;4991;43.566;27.820;2022-10-22T04:31:31;5.47;;;3.40;;
9904;SDS011;4991;43.566;27.820;2022-10-22T04:33:58;4.83;;;4.10;;
9904;SDS011;4991;43.566;27.820;2022-10-22T04:36:25;6.03;;;3.87;;
9904;SDS011;4991;43.566;27.820;2022-10-22T04:38:55;6.67;;;3.20;;
9904;SDS011;4991;43.566;27.820;2022-10-22T04:41:24;14.20;;;6.63;;
9904;SDS011;4991;43.566;27.820;2022-10-22T04:43:52;6.00;;;3.70;;
9904;SDS011;4991;43.566;27.820;2022-10-22T04:46:18;5.27;;;3.73;;
9904;SDS011;4991;43.566;27.820;2022-10-22T04:48:44;4.50;;;3.70;;
9904;SDS011;4991;43.566;27.820;2022-10-22T04:51:12;5.53;;;3.00;;
9904;SDS011;4991;43.566;27.820;2022-10-22T04:53:40;4.53;;;2.80;;
9904;SDS011;4991;43.566;27.820;2022-10-22T04:56:13;5.10;;;3.00;;
9904;SDS011;4991;43.566;27.820;2022-10-22T04:58:45;7.47;;;3.47;;
9904;SDS011;4991;43.566;27.820;2022-10-22T05:01:16;5.60;;;3.30;;
9904;SDS011;4991;43.566;27.820;2022-10-22T05:03:43;7.33;;;3.07;;
9904;SDS011;4991;43.566;27.820;2022-10-22T05:06:10;3.67;;;3.17;;
9904;SDS011;4991;43.566;27.820;2022-10-22T05:08:37;7.20;;;3.70;;
9904;SDS011;4991;43.566;27.820;2022-10-22T05:11:10;6.03;;;2.70;;
9904;SDS011;4991;43.566;27.820;2022-10-22T05:13:40;4.03;;;2.70;;
9904;SDS011;4991;43.566;27.820;2022-10-22T05:16:06;4.70;;;3.20;;
9904;SDS011;4991;43.566;27.820;2022-10-22T05:18:35;4.73;;;3.07;;
9904;SDS011;4991;43.566;27.820;2022-10-22T05:21:02;2.97;;;2.63;;
9904;SDS011;4991;43.566;27.820;2022-10-22T05:23:29;7.00;;;2.90;;
9904;SDS011;4991;43.566;27.820;2022-10-22T05:25:55;5.33;;;2.80;;
9904;SDS011;4991;43.566;27.820;2022-10-22T05:28:21;4.03;;;2.50;;
9904;SDS011;4991;43.566;27.820;2022-10-22T05:30:55;8.97;;;3.60;;
9904;SDS011;4991;43.566;27.820;2022-10-22T05:33:22;3.60;;;2.83;;
9904;SDS011;4991;43.566;27.820;2022-10-22T05:35:48;3.83;;;2.67;;
9904;SDS011;4991;43.566;27.820;2022-10-22T05:38:15;7.20;;;3.23;;
9904;SDS011;4991;43.566;27.820;2022-10-22T05:40:42;6.17;;;3.13;;
9904;SDS011;4991;43.566;27.820;2022-10-22T05:43:08;8.23;;;3.70;;
9904;SDS011;4991;43.566;27.820;2022-10-22T05:45:38;4.90;;;2.97;;
9904;SDS011;4991;43.566;27.820;2022-10-22T05:48:04;4.57;;;3.00;;
9904;SDS011;4991;43.566;27.820;2022-10-22T05:50:33;8.00;;;3.47;;
9904;SDS011;4991;43.566;27.820;2022-10-22T05:53:00;7.63;;;3.90;;
9904;SDS011;4991;43.566;27.820;2022-10-22T05:55:26;4.77;;;3.50;;
9904;SDS011;4991;43.566;27.820;2022-10-22T05:57:51;5.97;;;3.40;;
9904;SDS011;4991;43.566;27.820;2022-10-22T06:00:17;10.87;;;3.80;;
9904;SDS011;4991;43.566;27.820;2022-10-22T06:02:42;5.90;;;3.43;;
9904;SDS011;4991;43.566;27.820;2022-10-22T06:05:08;11.83;;;4.53;;
9904;SDS011;4991;43.566;27.820;2022-10-22T06:07:34;8.83;;;3.97;;
9904;SDS011;4991;43.566;27.820;2022-10-22T06:10:00;6.77;;;2.73;;
9904;SDS011;4991;43.566;27.820;2022-10-22T06:12:26;7.67;;;3.17;;
9904;SDS011;4991;43.566;27.820;2022-10-22T06:14:51;5.07;;;3.23;;
9904;SDS011;4991;43.566;27.820;2022-10-22T06:17:17;4.80;;;3.50;;
9904;SDS011;4991;43.566;27.820;2022-10-22T06:19:44;7.60;;;3.43;;
9904;SDS011;4991;43.566;27.820;2022-10-22T06:22:09;6.87;;;3.50;;
9904;SDS011;4991;43.566;27.820;2022-10-22T06:24:35;4.50;;;2.93;;
9904;SDS011;4991;43.566;27.820;2022-10-22T06:27:01;5.23;;;3.00;;
9904;SDS011;4991;43.566;27.820;2022-10-22T06:29:26;8.13;;;3.23;;
9904;SDS011;4991;43.566;27.820;2022-10-22T06:31:52;5.33;;;2.93;;
9904;SDS011;4991;43.566;27.820;2022-10-22T06:34:18;7.13;;;3.53;;
9904;SDS011;4991;43.566;27.820;2022-10-22T06:36:44;4.60;;;2.70;;
9904;SDS011;4991;43.566;27.820;2022-10-22T06:39:11;4.63;;;2.30;;
9904;SDS011;4991;43.566;27.820;2022-10-22T06:41:38;5.63;;;2.87;;
9904;SDS011;4991;43.566;27.820;2022-10-22T06:44:04;6.47;;;2.53;;
9904;SDS011;4991;43.566;27.820;2022-10-22T06:46:30;4.50;;;3.00;;
9904;SDS011;4991;43.566;27.820;2022-10-22T06:48:57;7.50;;;2.97;;
9904;SDS011;4991;43.566;27.820;2022-10-22T06:51:25;5.27;;;3.10;;
9904;SDS011;4991;43.566;27.820;2022-10-22T06:53:51;6.13;;;3.17;;
9904;SDS011;4991;43.566;27.820;2022-10-22T06:56:20;10.40;;;3.40;;
9904;SDS011;4991;43.566;27.820;2022-10-22T06:58:50;5.23;;;2.60;;
9904;SDS011;4991;43.566;27.820;2022-10-22T07:01:18;3.00;;;2.63;;
9904;SDS011;4991;43.566;27.820;2022-10-22T07:03:45;5.40;;;2.80;;
9904;SDS011;4991;43.566;27.820;2022-10-22T07:06:12;3.60;;;2.57;;
9904;SDS011;4991;43.566;27.820;2022-10-22T07:08:39;5.10;;;2.63;;
9904;SDS011;4991;43.566;27.820;2022-10-22T07:11:10;7.20;;;3.60;;
9904;SDS011;4991;43.566;27.820;2022-10-22T07:13:40;5.93;;;2.60;;
9904;SDS011;4991;43.566;27.820;2022-10-22T07:16:06;6.80;;;2.60;;
9904;SDS011;4991;43.566;27.820;2022-10-22T07:18:32;5.87;;;2.60;;
9904;SDS011;4991;43.566;27.820;2022-10-22T07:20:59;5.70;;;3.37;;
9904;SDS011;4991;43.566;27.820;2022-10-22T07:23:25;5.27;;;2.67;;
9904;SDS011;4991;43.566;27.820;2022-10-22T07:25:51;6.63;;;2.60;;
9904;SDS011;4991;43.566;27.820;2022-10-22T07:28:17;3.97;;;2.70;;
9904;SDS011;4991;43.566;27.820;2022-10-22T07:30:43;11.70;;;3.33;;
9904;SDS011;4991;43.566;27.820;2022-10-22T07:33:08;3.83;;;2.83;;
9904;SDS011;4991;43.566;27.820;2022-10-22T07:35:35;2.60;;;2.17;;
9904;SDS011;4991;43.566;27.820;2022-10-22T07:38:02;3.40;;;2.73;;
9904;SDS011;4991;43.566;27.820;2022-10-22T07:40:28;8.83;;;3.10;;
9904;SDS011;4991;43.566;27.820;2022-10-22T07:42:54;5.17;;;2.70;;
9904;SDS011;4991;43.566;27.820;2022-10-22T07:45:20;4.50;;;2.20;;
9904;SDS011;4991;43.566;27.820;2022-10-22T07:47:46;7.13;;;3.53;;
9904;SDS011;4991;43.566;27.820;2022-10-22T07:50:12;4.77;;;2.70;;
9904;SDS011;4991;43.566;27.820;2022-10-22T07:52:38;8.07;;;3.03;;
9904;SDS011;4991;43.566;27.820;2022-10-22T07:55:04;3.57;;;2.70;;
9904;SDS011;4991;43.566;27.820;2022-10-22T07:57:30;3.23;;;2.70;;
9904;SDS011;4991;43.566;27.820;2022-10-22T07:59:56;4.23;;;3.23;;
9904;SDS011;4991;43.566;27.820;2022-10-22T08:02:23;4.03;;;3.20;;
9904;SDS011;4991;43.566;27.820;2022-10-22T08:04:49;5.03;;;2.80;;
9904;SDS011;4991;43.566;27.820;2022-10-22T08:07:16;4.27;;;2.93;;
9904;SDS011;4991;43.566;27.820;2022-10-22T08:09:42;4.23;;;2.50;;
9904;SDS011;4991;43.566;27.820;2022-10-22T08:12:08;6.67;;;3.23;;
9904;SDS011;4991;43.566;27.820;2022-10-22T08:14:34;8.27;;;2.90;;
9904;SDS011;4991;43.566;27.820;2022-10-22T08:17:00;6.00;;;4.03;;
9904;SDS011;4991;43.566;27.820;2022-10-22T08:19:26;5.23;;;2.77;;
9904;SDS011;4991;43.566;27.820;2022-10-22T08:21:53;4.37;;;3.00;;
9904;SDS011;4991;43.566;27.820;2022-10-22T08:24:18;11.63;;;2.73;;
9904;SDS011;4991;43.566;27.820;2022-10-22T08:26:44;3.80;;;2.30;;
9904;SDS011;4991;43.566;27.820;2022-10-22T08:29:10;4.27;;;3.20;;
9904;SDS011;4991;43.566;27.820;2022-10-22T08:31:35;5.40;;;3.00;;
9904;SDS011;4991;43.566;27.820;2022-10-22T08:34:01;3.30;;;3.00;;
9904;SDS011;4991;43.566;27.820;2022-10-22T08:36:27;6.10;;;3.13;;
9904;SDS011;4991;43.566;27.820;2022-10-22T08:38:52;5.40;;;3.50;;
9904;SDS011;4991;43.566;27.820;2022-10-22T08:41:19;8.37;;;3.73;;
9904;SDS011;4991;43.566;27.820;2022-10-22T08:49:03;8.57;;;3.57;;
9904;SDS011;4991;43.566;27.820;2022-10-22T08:51:33;5.63;;;2.73;;
9904;SDS011;4991;43.566;27.820;2022-10-22T08:56:36;5.10;;;3.10;;
9904;SDS011;4991;43.566;27.820;2022-10-22T09:01:52;6.87;;;2.47;;
9904;SDS011;4991;43.566;27.820;2022-10-22T09:04:21;4.97;;;3.13;;
9904;SDS011;4991;43.566;27.820;2022-10-22T09:06:54;3.00;;;2.63;;
9904;SDS011;4991;43.566;27.820;2022-10-22T09:09:22;4.33;;;2.93;;
9904;SDS011;4991;43.566;27.820;2022-10-22T09:11:52;5.33;;;2.33;;
9904;SDS011;4991;43.566;27.820;2022-10-22T09:14:21;6.40;;;2.83;;
9904;SDS011;4991;43.566;27.820;2022-10-22T09:16:54;6.30;;;2.90;;
9904;SDS011;4991;43.566;27.820;2022-10-22T09:25:48;7.53;;;3.33;;
9904;SDS011;4991;43.566;27.820;2022-10-22T09:28:15;5.10;;;3.10;;
9904;SDS011;4991;43.566;27.820;2022-10-22T09:30:41;7.70;;;2.93;;
9904;SDS011;4991;43.566;27.820;2022-10-22T09:35:49;6.70;;;2.83;;
9904;SDS011;4991;43.566;27.820;2022-10-22T09:38:22;6.57;;;3.67;;
9904;SDS011;4991;43.566;27.820;2022-10-22T09:40:51;13.87;;;3.97;;
9904;SDS011;4991;43.566;27.820;2022-10-22T09:43:20;5.93;;;3.30;;
9904;SDS011;4991;43.566;27.820;2022-10-22T09:45:46;5.40;;;3.30;;
9904;SDS011;4991;43.566;27.820;2022-10-22T09:48:20;5.80;;;4.17;;
9904;SDS011;4991;43.566;27.820;2022-10-22T09:54:00;6.20;;;3.90;;
9904;SDS011;4991;43.566;27.820;2022-10-22T09:56:29;4.70;;;2.80;;
9904;SDS011;4991;43.566;27.820;2022-10-22T09:58:59;6.13;;;3.23;;
9904;SDS011;4991;43.566;27.820;2022-10-22T10:01:31;4.27;;;3.50;;
9904;SDS011;4991;43.566;27.820;2022-10-22T10:04:03;7.33;;;3.80;;
9904;SDS011;4991;43.566;27.820;2022-10-22T10:06:30;5.83;;;3.57;;
9904;SDS011;4991;43.566;27.820;2022-10-22T10:08:57;5.40;;;3.67;;
9904;SDS011;4991;43.566;27.820;2022-10-22T10:11:36;7.93;;;3.60;;
9904;SDS011;4991;43.566;27.820;2022-10-22T10:17:22;9.03;;;3.70;;
9904;SDS011;4991;43.566;27.820;2022-10-22T10:19:59;4.33;;;3.37;;
9904;SDS011;4991;43.566;27.820;2022-10-22T10:25:29;8.83;;;3.63;;
9904;SDS011;4991;43.566;27.820;2022-10-22T10:28:13;4.17;;;3.03;;
9904;SDS011;4991;43.566;27.820;2022-10-22T10:31:03;5.57;;;3.70;;
9904;SDS011;4991;43.566;27.820;2022-10-22T10:33:45;4.93;;;3.50;;
9904;SDS011;4991;43.566;27.820;2022-10-22T10:37:03;5.30;;;3.40;;
9904;SDS011;4991;43.566;27.820;2022-10-22T10:50:32;3.83;;;2.80;;
9904;SDS011;4991;43.566;27.820;2022-10-22T10:55:58;4.60;;;2.87;;
9904;SDS011;4991;43.566;27.820;2022-10-22T10:58:55;3.40;;;2.50;;
9904;SDS011;4991;43.566;27.820;2022-10-22T11:07:07;7.53;;;3.70;;
9904;SDS011;4991;43.566;27.820;2022-10-22T11:10:00;8.63;;;3.93;;
9904;SDS011;4991;43.566;27.820;2022-10-22T11:12:30;7.30;;;3.77;;
9904;SDS011;4991;43.566;27.820;2022-10-22T11:15:02;5.43;;;3.63;;
9904;SDS011;4991;43.566;27.820;2022-10-22T11:17:43;6.10;;;3.50;;
9904;SDS011;4991;43.566;27.820;2022-10-22T11:20:18;5.90;;;4.23;;
9904;SDS011;4991;43.566;27.820;2022-10-22T11:23:11;4.47;;;3.13;;
9904;SDS011;4991;43.566;27.820;2022-10-22T11:25:44;5.83;;;3.67;;
9904;SDS011;4991;43.566;27.820;2022-10-22T11:30:44;3.77;;;2.60;;
9904;SDS011;4991;43.566;27.820;2022-10-22T11:33:14;4.03;;;3.10;;
9904;SDS011;4991;43.566;27.820;2022-10-22T11:35:45;4.60;;;2.87;;
9904;SDS011;4991;43.566;27.820;2022-10-22T11:38:16;7.23;;;2.93;;
9904;SDS011;4991;43.566;27.820;2022-10-22T11:40:58;5.67;;;2.93;;
9904;SDS011;4991;43.566;27.820;2022-10-22T11:48:59;7.07;;;3.05;;
9904;SDS011;4991;43.566;27.820;2022-10-22T11:51:28;6.97;;;4.45;;
9904;SDS011;4991;43.566;27.820;2022-10-22T11:53:57;11.15;;;3.70;;
9904;SDS011;4991;43.566;27.820;2022-10-22T11:56:28;6.93;;;3.47;;
9904;SDS011;4991;43.566;27.820;2022-10-22T11:59:01;8.07;;;4.20;;
9904;SDS011;4991;43.566;27.820;2022-10-22T12:01:41;6.75;;;4.35;;
9904;SDS011;4991;43.566;27.820;2022-10-22T12:04:17;8.45;;;5.22;;
9904;SDS011;4991;43.566;27.820;2022-10-22T12:07:03;11.30;;;5.78;;
9904;SDS011;4991;43.566;27.820;2022-10-22T12:09:54;12.55;;;8.07;;
9904;SDS011;4991;43.566;27.820;2022-10-22T12:12:22;5.57;;;3.83;;
9904;SDS011;4991;43.566;27.820;2022-10-22T12:14:52;4.87;;;3.57;;
9904;SDS011;4991;43.566;27.820;2022-10-22T12:17:20;6.97;;;3.60;;
9904;SDS011;4991;43.566;27.820;2022-10-22T12:22:32;3.83;;;3.03;;
9904;SDS011;4991;43.566;27.820;2022-10-22T12:25:05;6.20;;;3.73;;
9904;SDS011;4991;43.566;27.820;2022-10-22T12:27:42;3.87;;;3.07;;
9904;SDS011;4991;43.566;27.820;2022-10-22T12:30:22;4.70;;;3.13;;
9904;SDS011;4991;43.566;27.820;2022-10-22T12:32:56;11.33;;;3.77;;
9904;SDS011;4991;43.566;27.820;2022-10-22T12:35:30;6.40;;;3.77;;
9904;SDS011;4991;43.566;27.820;2022-10-22T12:38:00;5.53;;;3.00;;
9904;SDS011;4991;43.566;27.820;2022-10-22T12:40:28;4.33;;;2.80;;
9904;SDS011;4991;43.566;27.820;2022-10-22T12:43:45;5.50;;;3.67;;
9904;SDS011;4991;43.566;27.820;2022-10-22T12:45:48;6.40;;;3.80;;
9904;SDS011;4991;43.566;27.820;2022-10-22T12:48:35;5.33;;;3.90;;
9904;SDS011;4991;43.566;27.820;2022-10-22T12:51:04;6.90;;;3.90;;
9904;SDS011;4991;43.566;27.820;2022-10-22T12:53:32;5.93;;;3.37;;
9904;SDS011;4991;43.566;27.820;2022-10-22T12:56:11;4.13;;;2.73;;
9904;SDS011;4991;43.566;27.820;2022-10-22T12:58:47;9.20;;;3.33;;
9904;SDS011;4991;43.566;27.820;2022-10-22T13:01:16;7.90;;;3.20;;
9904;SDS011;4991;43.566;27.820;2022-10-22T13:03:44;7.27;;;3.37;;
9904;SDS011;4991;43.566;27.820;2022-10-22T13:06:23;6.03;;;3.40;;
9904;SDS011;4991;43.566;27.820;2022-10-22T13:08:57;8.57;;;3.90;;
9904;SDS011;4991;43.566;27.820;2022-10-22T13:11:32;7.47;;;4.50;;
9904;SDS011;4991;43.566;27.820;2022-10-22T13:22:03;7.37;;;3.43;;
9904;SDS011;4991;43.566;27.820;2022-10-22T13:24:29;4.80;;;3.53;;
9904;SDS011;4991;43.566;27.820;2022-10-22T13:26:55;9.70;;;5.10;;
9904;SDS011;4991;43.566;27.820;2022-10-22T13:29:21;6.37;;;4.23;;
9904;SDS011;4991;43.566;27.820;2022-10-22T13:31:49;9.00;;;4.87;;
9904;SDS011;4991;43.566;27.820;2022-10-22T13:34:18;10.87;;;4.47;;
9904;SDS011;4991;43.566;27.820;2022-10-22T13:36:47;13.70;;;5.30;;
9904;SDS011;4991;43.566;27.820;2022-10-22T13:39:16;8.00;;;4.90;;
9904;SDS011;4991;43.566;27.820;2022-10-22T13:41:48;7.53;;;4.70;;
9904;SDS011;4991;43.566;27.820;2022-10-22T13:44:15;10.37;;;4.60;;
9904;SDS011;4991;43.566;27.820;2022-10-22T13:46:41;7.93;;;5.20;;
9904;SDS011;4991;43.566;27.820;2022-10-22T13:49:14;7.17;;;4.87;;
9904;SDS011;4991;43.566;27.820;2022-10-22T13:51:42;10.83;;;5.73;;
9904;SDS011;4991;43.566;27.820;2022-10-22T13:54:09;6.30;;;4.67;;
9904;SDS011;4991;43.566;27.820;2022-10-22T13:56:40;10.07;;;4.60;;
9904;SDS011;4991;43.566;27.820;2022-10-22T13:59:07;7.37;;;4.40;;
9904;SDS011;4991;43.566;27.820;2022-10-22T14:01:33;8.67;;;4.47;;
9904;SDS011;4991;43.566;27.820;2022-10-22T14:04:02;10.83;;;4.80;;
9904;SDS011;4991;43.566;27.820;2022-10-22T14:06:29;7.53;;;3.60;;
9904;SDS011;4991;43.566;27.820;2022-10-22T14:08:57;4.27;;;3.10;;
9904;SDS011;4991;43.566;27.820;2022-10-22T14:11:25;7.17;;;3.17;;
9904;SDS011;4991;43.566;27.820;2022-10-22T14:13:55;8.63;;;3.57;;
9904;SDS011;4991;43.566;27.820;2022-10-22T14:16:27;6.07;;;3.77;;
9904;SDS011;4991;43.566;27.820;2022-10-22T14:18:56;6.43;;;3.43;;
9904;SDS011;4991;43.566;27.820;2022-10-22T14:21:23;6.53;;;4.80;;
9904;SDS011;4991;43.566;27.820;2022-10-22T14:23:48;8.17;;;5.07;;
9904;SDS011;4991;43.566;27.820;2022-10-22T14:26:26;7.43;;;4.10;;
9904;SDS011;4991;43.566;27.820;2022-10-22T14:28:55;8.00;;;5.27;;
9904;SDS011;4991;43.566;27.820;2022-10-22T14:31:21;8.33;;;4.60;;
9904;SDS011;4991;43.566;27.820;2022-10-22T14:33:47;6.93;;;4.60;;
9904;SDS011;4991;43.566;27.820;2022-10-22T14:36:14;5.43;;;4.13;;
9904;SDS011;4991;43.566;27.820;2022-10-22T14:38:42;6.33;;;4.43;;
9904;SDS011;4991;43.566;27.820;2022-10-22T14:41:17;9.77;;;5.30;;
9904;SDS011;4991;43.566;27.820;2022-10-22T14:43:52;7.13;;;5.30;;
9904;SDS011;4991;43.566;27.820;2022-10-22T14:46:20;12.93;;;7.27;;
9904;SDS011;4991;43.566;27.820;2022-10-22T14:48:46;15.60;;;7.93;;
9904;SDS011;4991;43.566;27.820;2022-10-22T14:51:12;17.20;;;8.80;;
9904;SDS011;4991;43.566;27.820;2022-10-22T14:53:40;17.50;;;8.37;;
9904;SDS011;4991;43.566;27.820;2022-10-22T14:56:07;8.97;;;5.93;;
9904;SDS011;4991;43.566;27.820;2022-10-22T14:58:35;11.87;;;6.50;;
9904;SDS011;4991;43.566;27.820;2022-10-22T15:01:01;16.17;;;9.97;;
9904;SDS011;4991;43.566;27.820;2022-10-22T15:03:27;8.47;;;5.10;;
9904;SDS011;4991;43.566;27.820;2022-10-22T15:05:54;8.43;;;4.50;;
9904;SDS011;4991;43.566;27.820;2022-10-22T15:08:20;7.80;;;4.50;;
9904;SDS011;4991;43.566;27.820;2022-10-22T15:10:55;7.10;;;4.90;;
9904;SDS011;4991;43.566;27.820;2022-10-22T15:13:23;7.93;;;4.63;;
9904;SDS011;4991;43.566;27.820;2022-10-22T15:15:48;11.57;;;5.40;;
9904;SDS011;4991;43.566;27.820;2022-10-22T15:18:14;7.33;;;4.93;;
9904;SDS011;4991;43.566;27.820;2022-10-22T15:20:39;11.00;;;5.57;;
9904;SDS011;4991;43.566;27.820;2022-10-22T15:23:05;9.87;;;5.17;;
9904;SDS011;4991;43.566;27.820;2022-10-22T15:25:31;9.93;;;6.03;;
9904;SDS011;4991;43.566;27.820;2022-10-22T15:27:56;9.40;;;4.57;;
9904;SDS011;4991;43.566;27.820;2022-10-22T15:30:22;8.77;;;4.23;;
9904;SDS011;4991;43.566;27.820;2022-10-22T15:32:47;8.63;;;4.60;;
9904;SDS011;4991;43.566;27.820;2022-10-22T15:35:13;7.50;;;4.60;;
9904;SDS011;4991;43.566;27.820;2022-10-22T15:37:39;7.97;;;4.30;;
9904;SDS011;4991;43.566;27.820;2022-10-22T15:40:04;8.77;;;5.03;;
9904;SDS011;4991;43.566;27.820;2022-10-22T15:42:32;12.10;;;4.50;;
9904;SDS011;4991;43.566;27.820;2022-10-22T15:44:57;11.17;;;4.80;;
9904;SDS011;4991;43.566;27.820;2022-10-22T15:47:23;7.80;;;4.07;;
9904;SDS011;4991;43.566;27.820;2022-10-22T15:49:52;10.67;;;4.37;;
9904;SDS011;4991;43.566;27.820;2022-10-22T15:52:18;9.70;;;4.73;;
9904;SDS011;4991;43.566;27.820;2022-10-22T15:54:45;5.93;;;4.00;;
9904;SDS011;4991;43.566;27.820;2022-10-22T15:57:11;11.43;;;4.57;;
9904;SDS011;4991;43.566;27.820;2022-10-22T15:59:37;7.53;;;4.13;;
9904;SDS011;4991;43.566;27.820;2022-10-22T16:02:03;8.33;;;4.37;;
9904;SDS011;4991;43.566;27.820;2022-10-22T16:04:29;7.90;;;4.50;;
9904;SDS011;4991;43.566;27.820;2022-10-22T16:06:54;8.47;;;4.60;;
9904;SDS011;4991;43.566;27.820;2022-10-22T16:09:22;8.00;;;4.27;;
9904;SDS011;4991;43.566;27.820;2022-10-22T16:11:49;8.37;;;4.63;;
9904;SDS011;4991;43.566;27.820;2022-10-22T16:14:16;8.27;;;4.57;;
9904;SDS011;4991;43.566;27.820;2022-10-22T16:16:45;6.97;;;4.13;;
9904;SDS011;4991;43.566;27.820;2022-10-22T16:19:13;7.43;;;4.50;;
9904;SDS011;4991;43.566;27.820;2022-10-22T16:21:41;8.17;;;4.80;;
9904;SDS011;4991;43.566;27.820;2022-10-22T16:24:07;8.77;;;4.60;;
9904;SDS011;4991;43.566;27.820;2022-10-22T16:26:33;8.17;;;4.67;;
9904;SDS011;4991;43.566;27.820;2022-10-22T16:29:00;6.90;;;5.07;;
9904;SDS011;4991;43.566;27.820;2022-10-22T16:31:26;8.07;;;5.50;;
9904;SDS011;4991;43.566;27.820;2022-10-22T16:33:51;13.13;;;6.07;;
9904;SDS011;4991;43.566;27.820;2022-10-22T16:36:18;11.20;;;5.17;;
9904;SDS011;4991;43.566;27.820;2022-10-22T16:38:44;11.37;;;5.13;;
9904;SDS011;4991;43.566;27.820;2022-10-22T16:41:12;11.43;;;4.37;;
9904;SDS011;4991;43.566;27.820;2022-10-22T16:43:40;5.60;;;4.40;;
9904;SDS011;4991;43.566;27.820;2022-10-22T16:46:06;7.73;;;4.10;;